Sheppard Air Force Base-Wichita Falls Municipal Airport
KSPS : now visible

Airfield :











YOU CAN JOIN US ON...

 
LOGIN :

Register | Disclaimer

   EN    FR    IT 

 









Legend :    VFR   Marginal VFR   IFR   Intensive IFR   Very Intensive IFR
Visi :
Ceiling :
>= 8 km
>= 3000ft
5 to 8 km
1000 to 3000 ft
1500m to 5 km
500 to 1000 ft
800 to 1500m
200 to 500 ft
< 800m
< 200 ft
Symbols :   Thunderstorms  Fog  Heavy snow  Heavy precipitations  Wind > 20 kt






- Airport Elevation : 1019 ft
- IATA code : SPS


KSPS - Sheppard Air Force Base-Wichita Falls Municipal

CURRENT METAR :
  • 230752Z 00000KT 10SM CLR 21/17 A3001 RMK AO2 SLP150 T02110167

EXPIRED METARs :
  • 230652Z 18004KT 10SM CLR 20/17 A3001 RMK AO2 SLP152 T02000167
  • 230552Z 00000KT 10SM CLR 23/17 A3002 RMK AO2 SLP152 T02280167 10300 20211 403110211 50001
  • 230452Z 14004KT 10SM CLR 21/17 A3002 RMK AO2 SLP153 T02110172
  • 230352Z 08003KT 10SM CLR 23/17 A3002 RMK AO2 SLP154 T02330167
  • 230252Z 05006KT 10SM FEW100 24/17 A3002 RMK AO2 SLP152 T02390172 53013

TAF KSPS
Valid from the 23 at 06:00 until the 24 at 06:00 UTC


230520Z 2306/2406 VRB05KT P6SM FEW250
KZFW FIR / North America



MET'MAP, your aeronautical weather chart ! - Copyright ORBIFLY December 2007 - Disclaimer

ORBIFLY MET'MAP TEAM :

Programming & Development : Alexandra Zaïnal
Original concept : Baudouin d'Aumeries
Technical & hardware support : Manuel Goepfert
Assistance : Marc-Olivier Méhu




SOURCES & CREDITS :

   NOAA       Earth
Advisory